sensor_id;sensor_type;location;lat;lon;timestamp;P1;durP1;ratioP1;P2;durP2;ratioP2
59970;SDS011;45825;45.434;9.116;2023-10-19T00:00:39;54.58;;;45.30;;
59970;SDS011;45825;45.434;9.116;2023-10-19T00:03:09;54.40;;;44.95;;
59970;SDS011;45825;45.434;9.116;2023-10-19T00:05:35;54.53;;;45.65;;
59970;SDS011;45825;45.434;9.116;2023-10-19T00:08:01;54.40;;;44.85;;
59970;SDS011;45825;45.434;9.116;2023-10-19T00:10:39;57.40;;;44.88;;
59970;SDS011;45825;45.434;9.116;2023-10-19T00:13:10;55.95;;;45.20;;
59970;SDS011;45825;45.434;9.116;2023-10-19T00:15:39;56.50;;;44.22;;
59970;SDS011;45825;45.434;9.116;2023-10-19T00:18:06;57.00;;;46.95;;
59970;SDS011;45825;45.434;9.116;2023-10-19T00:20:41;54.17;;;43.70;;
59970;SDS011;45825;45.434;9.116;2023-10-19T00:23:13;55.33;;;44.67;;
59970;SDS011;45825;45.434;9.116;2023-10-19T00:25:43;58.67;;;45.22;;
59970;SDS011;45825;45.434;9.116;2023-10-19T00:28:16;60.17;;;46.25;;
59970;SDS011;45825;45.434;9.116;2023-10-19T00:30:42;61.03;;;49.15;;
59970;SDS011;45825;45.434;9.116;2023-10-19T00:33:10;62.15;;;46.70;;
59970;SDS011;45825;45.434;9.116;2023-10-19T00:35:53;57.97;;;48.38;;
59970;SDS011;45825;45.434;9.116;2023-10-19T00:38:23;60.35;;;48.67;;
59970;SDS011;45825;45.434;9.116;2023-10-19T00:40:56;58.58;;;46.85;;
59970;SDS011;45825;45.434;9.116;2023-10-19T00:43:31;62.70;;;49.50;;
59970;SDS011;45825;45.434;9.116;2023-10-19T00:45:59;65.00;;;51.25;;
59970;SDS011;45825;45.434;9.116;2023-10-19T00:48:27;66.03;;;51.95;;
59970;SDS011;45825;45.434;9.116;2023-10-19T00:50:53;63.28;;;49.92;;
59970;SDS011;45825;45.434;9.116;2023-10-19T00:53:36;63.28;;;49.20;;
59970;SDS011;45825;45.434;9.116;2023-10-19T00:56:02;59.85;;;49.58;;
59970;SDS011;45825;45.434;9.116;2023-10-19T00:58:31;64.20;;;50.30;;
59970;SDS011;45825;45.434;9.116;2023-10-19T01:01:01;57.90;;;48.85;;
59970;SDS011;45825;45.434;9.116;2023-10-19T01:03:32;60.42;;;48.75;;
59970;SDS011;45825;45.434;9.116;2023-10-19T01:06:01;63.20;;;49.83;;
59970;SDS011;45825;45.434;9.116;2023-10-19T01:08:30;59.92;;;48.60;;
59970;SDS011;45825;45.434;9.116;2023-10-19T01:11:06;61.42;;;49.53;;
59970;SDS011;45825;45.434;9.116;2023-10-19T01:13:35;60.30;;;47.90;;
59970;SDS011;45825;45.434;9.116;2023-10-19T01:16:00;56.80;;;46.13;;
59970;SDS011;45825;45.434;9.116;2023-10-19T01:18:26;63.60;;;48.13;;
59970;SDS011;45825;45.434;9.116;2023-10-19T01:20:54;56.85;;;47.60;;
59970;SDS011;45825;45.434;9.116;2023-10-19T01:23:20;60.60;;;48.65;;
59970;SDS011;45825;45.434;9.116;2023-10-19T01:25:50;60.08;;;46.75;;
59970;SDS011;45825;45.434;9.116;2023-10-19T01:28:19;63.60;;;47.53;;
59970;SDS011;45825;45.434;9.116;2023-10-19T01:31:12;58.42;;;47.10;;
59970;SDS011;45825;45.434;9.116;2023-10-19T01:33:53;61.47;;;48.95;;
59970;SDS011;45825;45.434;9.116;2023-10-19T01:36:21;60.42;;;48.90;;
59970;SDS011;45825;45.434;9.116;2023-10-19T01:38:47;64.45;;;50.25;;
59970;SDS011;45825;45.434;9.116;2023-10-19T01:41:13;59.33;;;46.85;;
59970;SDS011;45825;45.434;9.116;2023-10-19T01:43:48;59.60;;;49.67;;
59970;SDS011;45825;45.434;9.116;2023-10-19T01:46:16;64.18;;;48.38;;
59970;SDS011;45825;45.434;9.116;2023-10-19T01:48:50;63.47;;;49.15;;
59970;SDS011;45825;45.434;9.116;2023-10-19T01:51:20;61.28;;;50.10;;
59970;SDS011;45825;45.434;9.116;2023-10-19T01:53:48;61.45;;;48.70;;
59970;SDS011;45825;45.434;9.116;2023-10-19T01:56:14;57.45;;;45.85;;
59970;SDS011;45825;45.434;9.116;2023-10-19T01:58:44;61.00;;;47.10;;
59970;SDS011;45825;45.434;9.116;2023-10-19T02:01:15;62.53;;;49.63;;
59970;SDS011;45825;45.434;9.116;2023-10-19T02:03:53;62.00;;;47.53;;
59970;SDS011;45825;45.434;9.116;2023-10-19T02:06:26;61.13;;;48.45;;
59970;SDS011;45825;45.434;9.116;2023-10-19T02:09:00;65.82;;;49.00;;
59970;SDS011;45825;45.434;9.116;2023-10-19T02:11:43;65.30;;;50.30;;
59970;SDS011;45825;45.434;9.116;2023-10-19T02:14:12;62.53;;;48.58;;
59970;SDS011;45825;45.434;9.116;2023-10-19T02:16:41;60.63;;;49.33;;
59970;SDS011;45825;45.434;9.116;2023-10-19T02:19:08;62.47;;;47.33;;
59970;SDS011;45825;45.434;9.116;2023-10-19T02:21:34;59.25;;;49.38;;
59970;SDS011;45825;45.434;9.116;2023-10-19T02:24:05;61.88;;;48.75;;
59970;SDS011;45825;45.434;9.116;2023-10-19T02:26:32;60.40;;;49.28;;
59970;SDS011;45825;45.434;9.116;2023-10-19T02:28:58;58.30;;;48.00;;
59970;SDS011;45825;45.434;9.116;2023-10-19T02:31:24;61.67;;;48.75;;
59970;SDS011;45825;45.434;9.116;2023-10-19T02:33:50;60.42;;;47.88;;
59970;SDS011;45825;45.434;9.116;2023-10-19T02:36:20;59.65;;;48.45;;
59970;SDS011;45825;45.434;9.116;2023-10-19T02:38:45;64.57;;;48.42;;
59970;SDS011;45825;45.434;9.116;2023-10-19T02:41:18;60.58;;;48.35;;
59970;SDS011;45825;45.434;9.116;2023-10-19T02:46:15;55.40;;;43.80;;
59970;SDS011;45825;45.434;9.116;2023-10-19T02:48:42;57.67;;;45.08;;
59970;SDS011;45825;45.434;9.116;2023-10-19T02:51:11;58.13;;;45.80;;
59970;SDS011;45825;45.434;9.116;2023-10-19T02:53:37;57.38;;;46.40;;
59970;SDS011;45825;45.434;9.116;2023-10-19T02:56:13;63.38;;;49.55;;
59970;SDS011;45825;45.434;9.116;2023-10-19T02:58:41;63.92;;;49.42;;
59970;SDS011;45825;45.434;9.116;2023-10-19T03:01:13;65.35;;;48.95;;
59970;SDS011;45825;45.434;9.116;2023-10-19T03:03:42;65.88;;;49.60;;
59970;SDS011;45825;45.434;9.116;2023-10-19T03:06:08;64.65;;;49.05;;
59970;SDS011;45825;45.434;9.116;2023-10-19T03:08:34;64.43;;;48.85;;
59970;SDS011;45825;45.434;9.116;2023-10-19T03:11:00;66.18;;;51.03;;
59970;SDS011;45825;45.434;9.116;2023-10-19T03:13:29;62.90;;;47.60;;
59970;SDS011;45825;45.434;9.116;2023-10-19T03:15:54;60.92;;;47.55;;
59970;SDS011;45825;45.434;9.116;2023-10-19T03:18:20;59.17;;;46.60;;
59970;SDS011;45825;45.434;9.116;2023-10-19T03:20:45;59.83;;;47.00;;
59970;SDS011;45825;45.434;9.116;2023-10-19T03:23:10;57.83;;;44.45;;
59970;SDS011;45825;45.434;9.116;2023-10-19T03:25:35;66.55;;;47.17;;
59970;SDS011;45825;45.434;9.116;2023-10-19T03:28:20;68.68;;;47.95;;
59970;SDS011;45825;45.434;9.116;2023-10-19T03:30:45;60.25;;;45.80;;
59970;SDS011;45825;45.434;9.116;2023-10-19T03:33:12;63.35;;;47.13;;
59970;SDS011;45825;45.434;9.116;2023-10-19T03:35:37;61.58;;;47.60;;
59970;SDS011;45825;45.434;9.116;2023-10-19T03:38:06;59.80;;;46.80;;
59970;SDS011;45825;45.434;9.116;2023-10-19T03:40:39;63.03;;;48.25;;
59970;SDS011;45825;45.434;9.116;2023-10-19T03:43:05;62.20;;;46.75;;
59970;SDS011;45825;45.434;9.116;2023-10-19T03:45:41;61.72;;;46.03;;
59970;SDS011;45825;45.434;9.116;2023-10-19T03:48:12;64.53;;;47.13;;
59970;SDS011;45825;45.434;9.116;2023-10-19T03:50:38;63.13;;;48.42;;
59970;SDS011;45825;45.434;9.116;2023-10-19T03:53:03;65.55;;;48.08;;
59970;SDS011;45825;45.434;9.116;2023-10-19T03:55:31;63.88;;;48.80;;
59970;SDS011;45825;45.434;9.116;2023-10-19T03:58:02;68.18;;;48.80;;
59970;SDS011;45825;45.434;9.116;2023-10-19T04:00:28;61.45;;;47.72;;
59970;SDS011;45825;45.434;9.116;2023-10-19T04:02:57;62.45;;;48.40;;
59970;SDS011;45825;45.434;9.116;2023-10-19T04:05:23;65.95;;;49.88;;
59970;SDS011;45825;45.434;9.116;2023-10-19T04:07:50;68.15;;;49.63;;
59970;SDS011;45825;45.434;9.116;2023-10-19T04:10:19;67.32;;;49.42;;
59970;SDS011;45825;45.434;9.116;2023-10-19T04:12:57;67.13;;;49.95;;
59970;SDS011;45825;45.434;9.116;2023-10-19T04:15:25;68.28;;;50.05;;
59970;SDS011;45825;45.434;9.116;2023-10-19T04:17:51;70.32;;;51.35;;
59970;SDS011;45825;45.434;9.116;2023-10-19T04:20:23;68.43;;;49.67;;
59970;SDS011;45825;45.434;9.116;2023-10-19T04:23:00;65.03;;;49.60;;
59970;SDS011;45825;45.434;9.116;2023-10-19T04:25:35;62.53;;;46.22;;
59970;SDS011;45825;45.434;9.116;2023-10-19T04:28:00;62.90;;;47.97;;
59970;SDS011;45825;45.434;9.116;2023-10-19T04:30:26;64.10;;;48.90;;
59970;SDS011;45825;45.434;9.116;2023-10-19T04:32:51;66.30;;;49.20;;
59970;SDS011;45825;45.434;9.116;2023-10-19T04:35:18;65.47;;;48.50;;
59970;SDS011;45825;45.434;9.116;2023-10-19T04:37:47;67.80;;;49.67;;
59970;SDS011;45825;45.434;9.116;2023-10-19T04:40:13;68.53;;;48.90;;
59970;SDS011;45825;45.434;9.116;2023-10-19T04:42:40;66.50;;;49.40;;
59970;SDS011;45825;45.434;9.116;2023-10-19T04:45:05;67.03;;;48.80;;
59970;SDS011;45825;45.434;9.116;2023-10-19T04:47:31;66.88;;;48.42;;
59970;SDS011;45825;45.434;9.116;2023-10-19T04:50:00;71.63;;;51.35;;
59970;SDS011;45825;45.434;9.116;2023-10-19T04:52:26;71.70;;;50.88;;
59970;SDS011;45825;45.434;9.116;2023-10-19T04:54:51;72.68;;;51.88;;
59970;SDS011;45825;45.434;9.116;2023-10-19T04:57:16;73.25;;;52.10;;
59970;SDS011;45825;45.434;9.116;2023-10-19T04:59:41;74.72;;;52.92;;
59970;SDS011;45825;45.434;9.116;2023-10-19T05:02:10;71.00;;;52.15;;
59970;SDS011;45825;45.434;9.116;2023-10-19T05:04:35;70.45;;;51.22;;
59970;SDS011;45825;45.434;9.116;2023-10-19T05:07:01;70.10;;;50.63;;
59970;SDS011;45825;45.434;9.116;2023-10-19T05:09:28;67.80;;;49.22;;
59970;SDS011;45825;45.434;9.116;2023-10-19T05:11:54;68.60;;;48.97;;
59970;SDS011;45825;45.434;9.116;2023-10-19T05:14:20;69.40;;;50.10;;
59970;SDS011;45825;45.434;9.116;2023-10-19T05:16:45;70.32;;;49.50;;
59970;SDS011;45825;45.434;9.116;2023-10-19T05:19:11;68.75;;;49.10;;
59970;SDS011;45825;45.434;9.116;2023-10-19T05:21:36;69.10;;;49.55;;
59970;SDS011;45825;45.434;9.116;2023-10-19T05:24:01;62.63;;;46.40;;
59970;SDS011;45825;45.434;9.116;2023-10-19T05:26:26;67.07;;;47.88;;
59970;SDS011;45825;45.434;9.116;2023-10-19T05:28:52;67.53;;;46.92;;
59970;SDS011;45825;45.434;9.116;2023-10-19T05:31:19;72.00;;;49.90;;
59970;SDS011;45825;45.434;9.116;2023-10-19T05:33:44;69.15;;;48.75;;
59970;SDS011;45825;45.434;9.116;2023-10-19T05:36:13;68.10;;;47.33;;
59970;SDS011;45825;45.434;9.116;2023-10-19T05:38:39;67.45;;;48.60;;
59970;SDS011;45825;45.434;9.116;2023-10-19T05:41:05;64.43;;;47.15;;
59970;SDS011;45825;45.434;9.116;2023-10-19T05:43:30;64.85;;;46.60;;
59970;SDS011;45825;45.434;9.116;2023-10-19T05:45:56;62.47;;;46.40;;
59970;SDS011;45825;45.434;9.116;2023-10-19T05:48:21;62.72;;;45.63;;
59970;SDS011;45825;45.434;9.116;2023-10-19T05:50:49;61.85;;;45.10;;
59970;SDS011;45825;45.434;9.116;2023-10-19T05:53:14;59.88;;;43.70;;
59970;SDS011;45825;45.434;9.116;2023-10-19T05:55:43;59.25;;;44.10;;
59970;SDS011;45825;45.434;9.116;2023-10-19T05:58:11;59.00;;;44.13;;
59970;SDS011;45825;45.434;9.116;2023-10-19T06:00:38;58.35;;;43.80;;
59970;SDS011;45825;45.434;9.116;2023-10-19T06:03:03;60.28;;;44.92;;
59970;SDS011;45825;45.434;9.116;2023-10-19T06:05:29;58.92;;;44.88;;
59970;SDS011;45825;45.434;9.116;2023-10-19T06:07:55;56.53;;;43.33;;
59970;SDS011;45825;45.434;9.116;2023-10-19T06:10:21;56.83;;;42.13;;
59970;SDS011;45825;45.434;9.116;2023-10-19T06:12:50;57.55;;;44.03;;
59970;SDS011;45825;45.434;9.116;2023-10-19T06:15:17;59.90;;;44.95;;
59970;SDS011;45825;45.434;9.116;2023-10-19T06:17:45;58.55;;;43.75;;
59970;SDS011;45825;45.434;9.116;2023-10-19T06:20:13;57.33;;;42.67;;
59970;SDS011;45825;45.434;9.116;2023-10-19T06:22:48;57.15;;;42.97;;
59970;SDS011;45825;45.434;9.116;2023-10-19T06:25:17;57.47;;;42.72;;
59970;SDS011;45825;45.434;9.116;2023-10-19T06:27:43;54.10;;;40.05;;
59970;SDS011;45825;45.434;9.116;2023-10-19T06:30:09;58.17;;;41.38;;
59970;SDS011;45825;45.434;9.116;2023-10-19T06:32:35;57.88;;;41.28;;
59970;SDS011;45825;45.434;9.116;2023-10-19T06:35:01;56.97;;;40.75;;
59970;SDS011;45825;45.434;9.116;2023-10-19T06:37:27;53.60;;;41.35;;
59970;SDS011;45825;45.434;9.116;2023-10-19T06:39:52;54.00;;;40.33;;
59970;SDS011;45825;45.434;9.116;2023-10-19T06:42:18;48.42;;;36.97;;
59970;SDS011;45825;45.434;9.116;2023-10-19T06:44:44;53.47;;;39.25;;
59970;SDS011;45825;45.434;9.116;2023-10-19T06:47:09;48.40;;;37.08;;
59970;SDS011;45825;45.434;9.116;2023-10-19T06:49:35;45.15;;;35.50;;
59970;SDS011;45825;45.434;9.116;2023-10-19T06:52:02;49.08;;;37.22;;
59970;SDS011;45825;45.434;9.116;2023-10-19T06:54:29;47.58;;;35.25;;
59970;SDS011;45825;45.434;9.116;2023-10-19T06:56:55;45.67;;;34.38;;
59970;SDS011;45825;45.434;9.116;2023-10-19T06:59:20;48.58;;;35.05;;
59970;SDS011;45825;45.434;9.116;2023-10-19T07:01:46;47.67;;;34.83;;
59970;SDS011;45825;45.434;9.116;2023-10-19T07:04:11;48.38;;;36.40;;
59970;SDS011;45825;45.434;9.116;2023-10-19T07:06:38;51.97;;;37.50;;
59970;SDS011;45825;45.434;9.116;2023-10-19T07:09:03;50.30;;;36.92;;
59970;SDS011;45825;45.434;9.116;2023-10-19T07:11:30;50.72;;;36.53;;
59970;SDS011;45825;45.434;9.116;2023-10-19T07:13:57;53.58;;;38.28;;
59970;SDS011;45825;45.434;9.116;2023-10-19T07:16:22;53.42;;;38.50;;
59970;SDS011;45825;45.434;9.116;2023-10-19T07:18:47;52.83;;;37.00;;
59970;SDS011;45825;45.434;9.116;2023-10-19T07:21:12;57.08;;;38.45;;
59970;SDS011;45825;45.434;9.116;2023-10-19T07:23:38;56.63;;;39.60;;
59970;SDS011;45825;45.434;9.116;2023-10-19T07:26:03;58.40;;;39.17;;
59970;SDS011;45825;45.434;9.116;2023-10-19T07:28:29;48.58;;;34.92;;
59970;SDS011;45825;45.434;9.116;2023-10-19T07:30:56;47.33;;;34.75;;
59970;SDS011;45825;45.434;9.116;2023-10-19T07:33:22;42.97;;;32.25;;
59970;SDS011;45825;45.434;9.116;2023-10-19T07:35:49;45.67;;;33.35;;
59970;SDS011;45825;45.434;9.116;2023-10-19T07:38:21;50.03;;;34.15;;
59970;SDS011;45825;45.434;9.116;2023-10-19T07:40:47;50.95;;;35.42;;
59970;SDS011;45825;45.434;9.116;2023-10-19T07:43:12;43.88;;;33.78;;
59970;SDS011;45825;45.434;9.116;2023-10-19T07:45:38;46.08;;;34.33;;
59970;SDS011;45825;45.434;9.116;2023-10-19T07:48:03;46.83;;;33.88;;
59970;SDS011;45825;45.434;9.116;2023-10-19T07:50:35;48.75;;;36.38;;
59970;SDS011;45825;45.434;9.116;2023-10-19T07:53:03;51.13;;;36.28;;
59970;SDS011;45825;45.434;9.116;2023-10-19T07:55:29;48.00;;;35.28;;
59970;SDS011;45825;45.434;9.116;2023-10-19T07:57:57;50.35;;;35.58;;
59970;SDS011;45825;45.434;9.116;2023-10-19T08:00:25;43.47;;;32.33;;
59970;SDS011;45825;45.434;9.116;2023-10-19T08:02:51;43.65;;;32.53;;
59970;SDS011;45825;45.434;9.116;2023-10-19T08:05:20;72.30;;;31.92;;
59970;SDS011;45825;45.434;9.116;2023-10-19T08:07:46;46.25;;;33.60;;
59970;SDS011;45825;45.434;9.116;2023-10-19T08:10:13;41.45;;;31.77;;
59970;SDS011;45825;45.434;9.116;2023-10-19T08:12:41;43.03;;;31.33;;
59970;SDS011;45825;45.434;9.116;2023-10-19T08:15:10;40.95;;;30.85;;
59970;SDS011;45825;45.434;9.116;2023-10-19T08:17:40;41.70;;;31.60;;
59970;SDS011;45825;45.434;9.116;2023-10-19T08:20:07;41.28;;;30.88;;
59970;SDS011;45825;45.434;9.116;2023-10-19T08:22:35;40.45;;;31.05;;
59970;SDS011;45825;45.434;9.116;2023-10-19T08:25:04;41.70;;;31.17;;
59970;SDS011;45825;45.434;9.116;2023-10-19T08:27:36;42.45;;;31.27;;
59970;SDS011;45825;45.434;9.116;2023-10-19T08:30:05;41.13;;;30.42;;
59970;SDS011;45825;45.434;9.116;2023-10-19T08:32:33;39.65;;;29.60;;
59970;SDS011;45825;45.434;9.116;2023-10-19T08:34:59;40.55;;;30.30;;
59970;SDS011;45825;45.434;9.116;2023-10-19T08:37:26;39.00;;;29.45;;
59970;SDS011;45825;45.434;9.116;2023-10-19T08:39:51;38.88;;;29.10;;
59970;SDS011;45825;45.434;9.116;2023-10-19T08:42:16;40.20;;;28.00;;
59970;SDS011;45825;45.434;9.116;2023-10-19T08:44:41;38.20;;;28.95;;
59970;SDS011;45825;45.434;9.116;2023-10-19T08:47:07;52.67;;;37.78;;
59970;SDS011;45825;45.434;9.116;2023-10-19T08:49:33;45.85;;;32.38;;
59970;SDS011;45825;45.434;9.116;2023-10-19T08:51:59;42.15;;;30.70;;
59970;SDS011;45825;45.434;9.116;2023-10-19T08:54:25;39.95;;;28.90;;
59970;SDS011;45825;45.434;9.116;2023-10-19T08:56:52;43.38;;;31.60;;
59970;SDS011;45825;45.434;9.116;2023-10-19T08:59:17;40.30;;;31.70;;
59970;SDS011;45825;45.434;9.116;2023-10-19T09:01:43;42.53;;;32.40;;
59970;SDS011;45825;45.434;9.116;2023-10-19T09:04:11;43.03;;;32.15;;
59970;SDS011;45825;45.434;9.116;2023-10-19T09:06:39;45.33;;;32.33;;
59970;SDS011;45825;45.434;9.116;2023-10-19T09:09:10;41.60;;;32.15;;
59970;SDS011;45825;45.434;9.116;2023-10-19T09:11:45;41.08;;;30.83;;
59970;SDS011;45825;45.434;9.116;2023-10-19T09:14:11;38.95;;;30.30;;
59970;SDS011;45825;45.434;9.116;2023-10-19T09:19:21;39.78;;;30.85;;
59970;SDS011;45825;45.434;9.116;2023-10-19T09:22:01;37.65;;;29.88;;
59970;SDS011;45825;45.434;9.116;2023-10-19T09:24:32;39.30;;;31.35;;
59970;SDS011;45825;45.434;9.116;2023-10-19T09:26:58;117.40;;;97.50;;
59970;SDS011;45825;45.434;9.116;2023-10-19T09:29:23;52.88;;;36.63;;
59970;SDS011;45825;45.434;9.116;2023-10-19T09:31:50;45.90;;;35.15;;
59970;SDS011;45825;45.434;9.116;2023-10-19T09:34:17;43.15;;;33.72;;
59970;SDS011;45825;45.434;9.116;2023-10-19T09:36:43;43.05;;;33.47;;
59970;SDS011;45825;45.434;9.116;2023-10-19T09:39:09;40.97;;;31.75;;
59970;SDS011;45825;45.434;9.116;2023-10-19T09:41:37;41.83;;;31.27;;
59970;SDS011;45825;45.434;9.116;2023-10-19T09:44:04;41.28;;;31.75;;
59970;SDS011;45825;45.434;9.116;2023-10-19T09:46:34;40.00;;;30.50;;
59970;SDS011;45825;45.434;9.116;2023-10-19T09:49:04;39.13;;;30.33;;
59970;SDS011;45825;45.434;9.116;2023-10-19T09:51:29;36.20;;;30.23;;
59970;SDS011;45825;45.434;9.116;2023-10-19T09:54:00;36.58;;;29.65;;
59970;SDS011;45825;45.434;9.116;2023-10-19T09:56:38;42.38;;;31.70;;
59970;SDS011;45825;45.434;9.116;2023-10-19T09:59:06;38.42;;;30.02;;
59970;SDS011;45825;45.434;9.116;2023-10-19T10:09:25;38.03;;;29.10;;
59970;SDS011;45825;45.434;9.116;2023-10-19T10:11:51;34.97;;;28.83;;
59970;SDS011;45825;45.434;9.116;2023-10-19T10:14:21;35.85;;;29.23;;
59970;SDS011;45825;45.434;9.116;2023-10-19T10:16:58;37.05;;;30.13;;
59970;SDS011;45825;45.434;9.116;2023-10-19T10:19:25;33.17;;;27.35;;
59970;SDS011;45825;45.434;9.116;2023-10-19T10:22:03;33.20;;;27.42;;
59970;SDS011;45825;45.434;9.116;2023-10-19T10:24:39;33.13;;;26.55;;
59970;SDS011;45825;45.434;9.116;2023-10-19T10:27:08;32.17;;;26.10;;
59970;SDS011;45825;45.434;9.116;2023-10-19T10:29:34;31.17;;;25.52;;
59970;SDS011;45825;45.434;9.116;2023-10-19T10:32:00;27.35;;;24.00;;
59970;SDS011;45825;45.434;9.116;2023-10-19T10:37:10;31.98;;;22.33;;
59970;SDS011;45825;45.434;9.116;2023-10-19T10:39:38;26.83;;;22.88;;
59970;SDS011;45825;45.434;9.116;2023-10-19T10:42:06;27.00;;;23.10;;
59970;SDS011;45825;45.434;9.116;2023-10-19T10:47:01;30.40;;;26.58;;
59970;SDS011;45825;45.434;9.116;2023-10-19T10:49:26;28.50;;;24.08;;
59970;SDS011;45825;45.434;9.116;2023-10-19T10:51:51;29.50;;;24.45;;
59970;SDS011;45825;45.434;9.116;2023-10-19T10:54:21;26.48;;;22.10;;
59970;SDS011;45825;45.434;9.116;2023-10-19T10:56:46;25.90;;;22.17;;
59970;SDS011;45825;45.434;9.116;2023-10-19T10:59:15;27.23;;;24.27;;
59970;SDS011;45825;45.434;9.116;2023-10-19T11:01:40;26.30;;;23.20;;
59970;SDS011;45825;45.434;9.116;2023-10-19T11:04:10;26.83;;;23.13;;
59970;SDS011;45825;45.434;9.116;2023-10-19T11:06:52;28.55;;;24.05;;
59970;SDS011;45825;45.434;9.116;2023-10-19T11:09:21;30.40;;;25.17;;
59970;SDS011;45825;45.434;9.116;2023-10-19T11:11:47;29.17;;;24.60;;
59970;SDS011;45825;45.434;9.116;2023-10-19T11:14:14;28.42;;;24.42;;
59970;SDS011;45825;45.434;9.116;2023-10-19T11:16:40;29.83;;;24.77;;
59970;SDS011;45825;45.434;9.116;2023-10-19T11:19:06;28.60;;;23.60;;
59970;SDS011;45825;45.434;9.116;2023-10-19T11:21:31;29.13;;;24.33;;
59970;SDS011;45825;45.434;9.116;2023-10-19T11:23:56;28.20;;;22.25;;
59970;SDS011;45825;45.434;9.116;2023-10-19T11:26:22;26.35;;;22.58;;
59970;SDS011;45825;45.434;9.116;2023-10-19T11:28:58;26.65;;;22.83;;
59970;SDS011;45825;45.434;9.116;2023-10-19T11:31:26;31.08;;;24.38;;
59970;SDS011;45825;45.434;9.116;2023-10-19T11:33:53;27.70;;;24.17;;
59970;SDS011;45825;45.434;9.116;2023-10-19T11:36:22;48.25;;;25.42;;
59970;SDS011;45825;45.434;9.116;2023-10-19T11:38:50;33.83;;;25.63;;
59970;SDS011;45825;45.434;9.116;2023-10-19T11:41:17;33.95;;;26.00;;
59970;SDS011;45825;45.434;9.116;2023-10-19T11:43:47;33.05;;;25.40;;
59970;SDS011;45825;45.434;9.116;2023-10-19T11:46:13;27.88;;;23.58;;
59970;SDS011;45825;45.434;9.116;2023-10-19T11:48:40;29.85;;;24.85;;
59970;SDS011;45825;45.434;9.116;2023-10-19T11:51:07;29.30;;;24.38;;
59970;SDS011;45825;45.434;9.116;2023-10-19T11:53:34;28.50;;;23.02;;
59970;SDS011;45825;45.434;9.116;2023-10-19T11:56:05;28.67;;;22.15;;
59970;SDS011;45825;45.434;9.116;2023-10-19T11:58:32;27.63;;;21.88;;
59970;SDS011;45825;45.434;9.116;2023-10-19T12:00:59;27.20;;;21.42;;
59970;SDS011;45825;45.434;9.116;2023-10-19T12:03:24;26.67;;;21.80;;
59970;SDS011;45825;45.434;9.116;2023-10-19T12:05:50;25.55;;;21.40;;
59970;SDS011;45825;45.434;9.116;2023-10-19T12:08:18;24.05;;;20.75;;
59970;SDS011;45825;45.434;9.116;2023-10-19T12:10:43;25.88;;;21.13;;
59970;SDS011;45825;45.434;9.116;2023-10-19T12:13:09;24.02;;;19.63;;
59970;SDS011;45825;45.434;9.116;2023-10-19T12:15:34;24.15;;;20.08;;
59970;SDS011;45825;45.434;9.116;2023-10-19T12:18:00;23.15;;;20.35;;
59970;SDS011;45825;45.434;9.116;2023-10-19T12:20:27;26.38;;;21.90;;
59970;SDS011;45825;45.434;9.116;2023-10-19T12:22:53;25.15;;;21.42;;
59970;SDS011;45825;45.434;9.116;2023-10-19T12:25:21;27.40;;;21.38;;
59970;SDS011;45825;45.434;9.116;2023-10-19T12:27:53;24.60;;;21.30;;
59970;SDS011;45825;45.434;9.116;2023-10-19T12:30:19;26.08;;;21.25;;
59970;SDS011;45825;45.434;9.116;2023-10-19T12:32:46;26.40;;;22.23;;
59970;SDS011;45825;45.434;9.116;2023-10-19T12:35:14;26.48;;;22.00;;
59970;SDS011;45825;45.434;9.116;2023-10-19T12:37:40;26.60;;;21.17;;
59970;SDS011;45825;45.434;9.116;2023-10-19T12:40:11;28.10;;;21.30;;
59970;SDS011;45825;45.434;9.116;2023-10-19T12:42:51;28.38;;;22.50;;
59970;SDS011;45825;45.434;9.116;2023-10-19T12:45:19;28.13;;;22.00;;
59970;SDS011;45825;45.434;9.116;2023-10-19T12:47:45;32.40;;;23.80;;
59970;SDS011;45825;45.434;9.116;2023-10-19T12:50:10;29.83;;;22.58;;
59970;SDS011;45825;45.434;9.116;2023-10-19T12:52:37;29.90;;;21.08;;
59970;SDS011;45825;45.434;9.116;2023-10-19T12:55:05;28.20;;;20.55;;
59970;SDS011;45825;45.434;9.116;2023-10-19T12:57:31;29.05;;;20.92;;
59970;SDS011;45825;45.434;9.116;2023-10-19T12:59:57;26.33;;;20.60;;
59970;SDS011;45825;45.434;9.116;2023-10-19T13:02:23;28.95;;;21.63;;
59970;SDS011;45825;45.434;9.116;2023-10-19T13:04:49;25.52;;;20.60;;
59970;SDS011;45825;45.434;9.116;2023-10-19T13:07:14;26.42;;;20.52;;
59970;SDS011;45825;45.434;9.116;2023-10-19T13:09:40;29.20;;;20.40;;
59970;SDS011;45825;45.434;9.116;2023-10-19T13:12:05;25.75;;;19.60;;
59970;SDS011;45825;45.434;9.116;2023-10-19T13:14:32;26.60;;;19.10;;
59970;SDS011;45825;45.434;9.116;2023-10-19T13:16:59;26.15;;;19.50;;
59970;SDS011;45825;45.434;9.116;2023-10-19T13:19:24;36.38;;;20.35;;
59970;SDS011;45825;45.434;9.116;2023-10-19T13:21:50;28.75;;;20.80;;
59970;SDS011;45825;45.434;9.116;2023-10-19T13:24:17;27.45;;;20.50;;
59970;SDS011;45825;45.434;9.116;2023-10-19T13:26:45;29.30;;;21.70;;
59970;SDS011;45825;45.434;9.116;2023-10-19T13:29:12;32.95;;;21.90;;
59970;SDS011;45825;45.434;9.116;2023-10-19T13:31:37;29.50;;;21.90;;
59970;SDS011;45825;45.434;9.116;2023-10-19T13:34:03;47.22;;;23.90;;
59970;SDS011;45825;45.434;9.116;2023-10-19T13:36:30;37.05;;;20.60;;
59970;SDS011;45825;45.434;9.116;2023-10-19T13:38:56;31.30;;;20.15;;
59970;SDS011;45825;45.434;9.116;2023-10-19T13:41:21;59.28;;;22.85;;
59970;SDS011;45825;45.434;9.116;2023-10-19T13:43:47;34.38;;;22.13;;
59970;SDS011;45825;45.434;9.116;2023-10-19T13:46:13;48.25;;;24.15;;
59970;SDS011;45825;45.434;9.116;2023-10-19T13:48:38;28.42;;;21.48;;
59970;SDS011;45825;45.434;9.116;2023-10-19T13:51:04;31.58;;;20.98;;
59970;SDS011;45825;45.434;9.116;2023-10-19T13:53:48;44.13;;;23.33;;
59970;SDS011;45825;45.434;9.116;2023-10-19T13:56:14;48.65;;;22.13;;
59970;SDS011;45825;45.434;9.116;2023-10-19T13:58:40;34.35;;;23.00;;
59970;SDS011;45825;45.434;9.116;2023-10-19T14:01:06;57.97;;;24.23;;
59970;SDS011;45825;45.434;9.116;2023-10-19T14:03:33;36.58;;;22.00;;
59970;SDS011;45825;45.434;9.116;2023-10-19T14:05:59;36.33;;;22.20;;
59970;SDS011;45825;45.434;9.116;2023-10-19T14:08:25;48.67;;;22.38;;
59970;SDS011;45825;45.434;9.116;2023-10-19T14:10:50;56.92;;;23.15;;
59970;SDS011;45825;45.434;9.116;2023-10-19T14:13:16;49.90;;;23.77;;
59970;SDS011;45825;45.434;9.116;2023-10-19T14:15:41;31.40;;;21.73;;
59970;SDS011;45825;45.434;9.116;2023-10-19T14:18:07;29.17;;;20.67;;
59970;SDS011;45825;45.434;9.116;2023-10-19T14:20:33;37.55;;;22.15;;
59970;SDS011;45825;45.434;9.116;2023-10-19T14:22:59;128.23;;;28.23;;
59970;SDS011;45825;45.434;9.116;2023-10-19T14:25:26;89.50;;;24.63;;
59970;SDS011;45825;45.434;9.116;2023-10-19T14:27:52;69.55;;;23.50;;
59970;SDS011;45825;45.434;9.116;2023-10-19T14:30:24;81.63;;;23.40;;
59970;SDS011;45825;45.434;9.116;2023-10-19T14:32:50;29.60;;;21.05;;
59970;SDS011;45825;45.434;9.116;2023-10-19T14:35:19;42.53;;;19.27;;
59970;SDS011;45825;45.434;9.116;2023-10-19T14:37:47;35.63;;;21.33;;
59970;SDS011;45825;45.434;9.116;2023-10-19T14:40:17;35.50;;;20.08;;
59970;SDS011;45825;45.434;9.116;2023-10-19T14:42:48;30.48;;;19.13;;